Cleveland, Ohio
Traffic Map
Current Weather Conditions
Cleveland, Ohio
Clear
Clear
81°
Feels Like: 84°
Wind Chill: 81° Ceiling: Unl
Heat Index: 84° Visibility: 10mi
Dew Point: 69° Wind: 12mph
Humidity: 67% Direction: 150° (SSE)
Pressure: 29.98in Gusts: 0mph
Raw Report DataKBKL 202353Z 15010KT 10SM CLR 27/21 A2998 RMK AO2 SLP148 T02720206 10294 20233 58009
Traffic Incident Summary
Active as of:
Severity:
Category:
InformationThere was an issue retrieving the traffic information for this location. Please try a different location or try again shortly.
Advertisements